Time;durP1;ratioP1;P1;durP2;ratioP2;P2;SDS_P1;SDS_P2;PMS_P1;PMS_P2;Temp;Humidity;BMP_temperature;BMP_pressure;BME280_temperature;BME280_humidity;BME280_pressure;Samples;Min_cycle;Max_cycle;Signal;HPM_P1;HPM_P2
2021/12/16 00:09:09;;;;;;;21.00;13.05;;;11.90;87.60;;;;;;5065068;28;20044;-78
2021/12/16 00:30:53;;;;;;;20.05;12.57;;;11.80;87.50;;;;;;5061582;28;20455;-79
2021/12/16 00:33:32;;;;;;;19.52;12.02;;;11.80;87.60;;;;;;5061763;28;20550;-81
2021/12/16 00:36:00;;;;;;;19.45;12.02;;;11.80;87.70;;;;;;5061478;28;20021;-78
2021/12/16 00:38:25;;;;;;;21.73;12.75;;;11.80;87.70;;;;;;5060932;28;20044;-79
2021/12/16 00:40:51;;;;;;;21.05;11.60;;;11.80;87.60;;;;;;5069074;28;20021;-79
2021/12/16 00:43:46;;;;;;;17.88;10.90;;;11.80;87.60;;;;;;5068373;28;20036;-80
2021/12/16 00:46:17;;;;;;;21.10;12.88;;;11.80;87.50;;;;;;5072105;28;20029;-79
2021/12/16 00:56:33;;;;;;;24.00;15.07;;;11.80;87.50;;;;;;5072961;28;20033;-79
2021/12/16 00:59:00;;;;;;;17.75;10.27;;;11.70;87.30;;;;;;5071358;28;20044;-80
2021/12/16 01:05:18;;;;;;;20.23;12.20;;;11.80;87.50;;;;;;5073357;28;20032;-79
2021/12/16 01:37:05;;;;;;;19.67;11.90;;;11.90;87.20;;;;;;5071333;28;20715;-84
2021/12/16 01:42:29;;;;;;;19.85;11.43;;;11.90;87.20;;;;;;5072658;28;20037;-80
2021/12/16 01:47:52;;;;;;;21.02;11.85;;;11.90;87.30;;;;;;5072364;28;20040;-79
2021/12/16 01:50:27;;;;;;;23.00;12.55;;;11.80;87.10;;;;;;5066614;28;20042;-79
2021/12/16 01:53:17;;;;;;;18.33;10.40;;;11.80;87.10;;;;;;5071992;28;20103;-79
2021/12/16 01:55:58;;;;;;;16.52;9.23;;;11.90;87.20;;;;;;5065572;28;20021;-80
2021/12/16 01:58:27;;;;;;;22.17;12.20;;;11.90;87.20;;;;;;5070429;28;20052;-78
2021/12/16 02:03:42;;;;;;;22.10;12.68;;;11.90;87.10;;;;;;5072131;28;20036;-79
2021/12/16 02:08:40;;;;;;;21.92;11.63;;;11.90;87.00;;;;;;5071606;28;20098;-79
2021/12/16 02:11:28;;;;;;;17.80;11.18;;;11.90;86.90;;;;;;5071304;28;20468;-79
2021/12/16 02:28:06;;;;;;;22.90;13.85;;;11.80;87.00;;;;;;5071342;28;20158;-78
2021/12/16 02:36:23;;;;;;;22.45;13.18;;;11.70;87.10;;;;;;5071048;28;20486;-79
2021/12/16 02:38:52;;;;;;;21.10;13.35;;;11.80;87.10;;;;;;5070575;28;20028;-79
2021/12/16 02:41:18;;;;;;;19.90;11.45;;;11.70;87.00;;;;;;5071020;28;20037;-79
2021/12/16 02:44:09;;;;;;;20.40;12.38;;;11.70;87.10;;;;;;5069738;28;20108;-78
2021/12/16 02:49:21;;;;;;;17.45;10.52;;;11.70;87.10;;;;;;5070333;28;20074;-78
2021/12/16 02:51:47;;;;;;;15.75;10.23;;;11.70;87.20;;;;;;5060075;28;20025;-79
2021/12/16 02:54:14;;;;;;;19.15;11.15;;;11.70;87.10;;;;;;5070710;28;20043;-79
2021/12/16 02:56:39;;;;;;;22.55;13.25;;;11.70;87.20;;;;;;5070338;28;20457;-79
2021/12/16 02:59:05;;;;;;;22.40;13.57;;;11.70;87.10;;;;;;5070725;28;20026;-80
2021/12/16 03:01:53;;;;;;;21.17;12.60;;;11.70;87.00;;;;;;5070476;28;20042;-79
2021/12/16 03:04:21;;;;;;;21.80;13.07;;;11.70;87.20;;;;;;5070615;28;20473;-78
2021/12/16 03:06:51;;;;;;;19.83;12.10;;;11.70;87.20;;;;;;5062351;28;20078;-78
2021/12/16 03:09:27;;;;;;;17.00;10.85;;;11.70;87.20;;;;;;5070455;28;20033;-78
2021/12/16 03:12:38;;;;;;;19.42;11.57;;;11.70;87.20;;;;;;5068871;28;20025;-78
2021/12/16 03:14:47;;;;;;;19.85;12.55;;;11.70;87.10;;;;;;5069633;28;20089;-78
2021/12/16 03:17:21;;;;;;;16.55;9.70;;;11.70;87.10;;;;;;5069145;28;20031;-79
2021/12/16 03:20:06;;;;;;;16.92;9.80;;;11.70;87.10;;;;;;5069073;28;20131;-78
2021/12/16 03:23:05;;;;;;;16.83;10.07;;;11.70;87.20;;;;;;5050926;28;20029;-78
2021/12/16 03:25:31;;;;;;;18.42;11.52;;;11.70;87.20;;;;;;5061971;28;20037;-78
2021/12/16 03:31:11;;;;;;;19.05;10.90;;;11.70;87.30;;;;;;5070317;28;20040;-78
2021/12/16 03:38:42;;;;;;;19.55;11.80;;;11.70;87.20;;;;;;5070806;28;20029;-78
2021/12/16 03:41:09;;;;;;;20.67;11.52;;;11.70;87.20;;;;;;5069872;28;20108;-78
2021/12/16 03:43:37;;;;;;;18.08;12.00;;;11.70;87.10;;;;;;5069737;28;20028;-79
2021/12/16 03:48:45;;;;;;;18.60;11.40;;;11.80;87.00;;;;;;5070076;28;20041;-79
2021/12/16 03:51:13;;;;;;;20.20;12.20;;;11.80;87.10;;;;;;5070118;28;20645;-78
2021/12/16 03:53:42;;;;;;;25.65;13.00;;;11.80;87.00;;;;;;5068851;28;20060;-78
2021/12/16 03:56:09;;;;;;;25.02;13.50;;;11.70;86.90;;;;;;5069296;28;20020;-79
2021/12/16 03:58:34;;;;;;;22.23;11.55;;;11.80;86.90;;;;;;5069992;28;20052;-79
2021/12/16 04:01:04;;;;;;;21.02;11.48;;;11.70;86.90;;;;;;5069936;28;20472;-78
2021/12/16 04:03:31;;;;;;;18.65;10.98;;;11.80;86.90;;;;;;5069543;28;20048;-78
2021/12/16 04:05:56;;;;;;;19.05;11.18;;;11.70;86.90;;;;;;5068926;28;20360;-78
2021/12/16 04:08:23;;;;;;;21.75;11.68;;;11.70;87.00;;;;;;5069919;28;20157;-78
2021/12/16 04:11:02;;;;;;;19.60;11.40;;;11.80;87.10;;;;;;5068503;28;20040;-78
2021/12/16 04:13:28;;;;;;;20.35;11.98;;;11.80;87.00;;;;;;5056977;28;20035;-77
2021/12/16 04:15:54;;;;;;;17.73;10.05;;;11.80;87.00;;;;;;5064808;28;20020;-78
2021/12/16 04:18:19;;;;;;;18.95;10.73;;;11.80;87.00;;;;;;5069888;28;20411;-78
2021/12/16 04:20:46;;;;;;;18.63;10.40;;;11.80;87.00;;;;;;5072354;28;20028;-78
2021/12/16 04:23:12;;;;;;;13.75;8.85;;;11.80;87.00;;;;;;5073400;28;20035;-78
2021/12/16 04:25:42;;;;;;;19.13;11.43;;;11.80;87.00;;;;;;5073319;28;20099;-77
2021/12/16 04:28:13;;;;;;;16.10;10.55;;;11.80;87.00;;;;;;5073941;28;20036;-79
2021/12/16 04:30:39;;;;;;;16.80;10.23;;;11.90;87.00;;;;;;5072393;28;20036;-78
2021/12/16 04:33:05;;;;;;;17.13;10.30;;;11.90;86.90;;;;;;5073357;28;20529;-79
2021/12/16 04:35:32;;;;;;;15.73;9.13;;;11.90;87.00;;;;;;5073355;28;20078;-78
2021/12/16 04:37:58;;;;;;;17.23;10.77;;;11.90;87.60;;;;;;5071885;28;20044;-79
2021/12/16 04:40:26;;;;;;;18.88;11.32;;;11.80;86.90;;;;;;5071646;28;20563;-78
2021/12/16 04:42:58;;;;;;;19.58;11.05;;;11.80;86.90;;;;;;5073215;28;20563;-78
2021/12/16 04:45:24;;;;;;;17.30;10.38;;;11.80;86.90;;;;;;5071935;28;20082;-79
2021/12/16 04:47:50;;;;;;;13.13;8.38;;;11.80;86.90;;;;;;5073378;28;20017;-79
2021/12/16 04:50:17;;;;;;;15.60;9.68;;;11.80;87.00;;;;;;5073317;28;20074;-79
2021/12/16 04:52:42;;;;;;;16.77;9.20;;;11.80;86.90;;;;;;5073507;28;20017;-79
2021/12/16 04:55:10;;;;;;;17.92;10.27;;;11.80;87.00;;;;;;5072801;28;20027;-78
2021/12/16 04:57:36;;;;;;;15.48;9.60;;;11.80;87.00;;;;;;5073145;28;20522;-78
2021/12/16 05:00:03;;;;;;;16.55;9.98;;;11.80;86.90;;;;;;5072857;28;20055;-78
2021/12/16 05:02:30;;;;;;;18.15;10.20;;;11.70;86.80;;;;;;5072916;28;20471;-78
2021/12/16 05:04:56;;;;;;;15.75;10.13;;;11.70;86.80;;;;;;5072297;28;20036;-78
2021/12/16 05:07:22;;;;;;;17.90;9.77;;;11.70;86.70;;;;;;5072916;28;20375;-78
2021/12/16 05:10:05;;;;;;;18.98;10.25;;;11.70;86.80;;;;;;5072811;28;20044;-79
2021/12/16 05:12:36;;;;;;;15.07;8.30;;;11.70;86.80;;;;;;5072820;28;20051;-78
2021/12/16 05:15:05;;;;;;;17.88;10.15;;;11.60;86.70;;;;;;5072840;28;20031;-79
2021/12/16 05:17:34;;;;;;;14.48;8.60;;;11.50;86.70;;;;;;5068527;28;20028;-79
2021/12/16 05:20:06;;;;;;;16.80;9.75;;;11.50;87.00;;;;;;5071528;28;20044;-79
2021/12/16 05:25:26;;;;;;;17.73;9.40;;;11.50;86.90;;;;;;5072368;28;20402;-79
2021/12/16 05:27:52;;;;;;;14.45;9.18;;;11.50;87.00;;;;;;5070409;28;20020;-79
2021/12/16 05:30:17;;;;;;;15.63;9.15;;;11.50;87.00;;;;;;5072312;28;20040;-78
2021/12/16 05:32:45;;;;;;;15.15;9.30;;;11.50;87.10;;;;;;5072378;28;20099;-77
2021/12/16 05:35:17;;;;;;;15.52;9.05;;;11.50;87.00;;;;;;5072032;28;20029;-78
2021/12/16 05:37:44;;;;;;;14.10;8.73;;;11.60;87.00;;;;;;5072562;28;20083;-78
2021/12/16 05:40:12;;;;;;;15.88;9.15;;;11.60;87.00;;;;;;5071950;28;20024;-78
2021/12/16 05:42:38;;;;;;;13.40;8.18;;;11.70;87.10;;;;;;5060203;28;20024;-79
2021/12/16 05:45:05;;;;;;;16.48;9.63;;;11.70;87.00;;;;;;5071812;28;20035;-78
2021/12/16 05:47:31;;;;;;;14.27;8.65;;;11.70;87.00;;;;;;5072462;28;20020;-78
2021/12/16 05:49:57;;;;;;;14.90;9.32;;;11.70;86.80;;;;;;5071786;28;20031;-79
2021/12/16 05:52:23;;;;;;;16.63;9.15;;;11.70;86.80;;;;;;5072281;28;20029;-79
2021/12/16 05:54:48;;;;;;;14.13;8.88;;;11.70;86.90;;;;;;5071795;28;20036;-78
2021/12/16 05:57:14;;;;;;;19.45;9.70;;;11.70;86.90;;;;;;5071992;28;20367;-79
2021/12/16 05:59:39;;;;;;;15.55;9.18;;;11.70;86.90;;;;;;5072266;28;20047;-79
2021/12/16 06:02:06;;;;;;;14.70;8.25;;;11.80;86.90;;;;;;5071965;28;20064;-79
2021/12/16 06:04:33;;;;;;;18.48;8.50;;;11.70;86.70;;;;;;5071830;28;20020;-79
2021/12/16 06:06:59;;;;;;;13.70;8.50;;;11.80;86.80;;;;;;5071460;28;20028;-79
2021/12/16 06:09:25;;;;;;;15.18;9.60;;;11.70;86.80;;;;;;5070771;28;20032;-79
2021/12/16 06:11:53;;;;;;;17.63;8.50;;;11.70;86.80;;;;;;5071445;28;20097;-78
2021/12/16 06:27:40;;;;;;;10.65;6.03;;;11.70;86.80;;;;;;5064826;28;20098;-78
2021/12/16 06:30:09;;;;;;;16.60;7.93;;;11.60;86.80;;;;;;5061915;28;20043;-78
2021/12/16 06:32:35;;;;;;;17.35;8.57;;;11.70;86.90;;;;;;5067327;28;20525;-78
2021/12/16 06:35:01;;;;;;;14.63;8.10;;;11.60;86.80;;;;;;5070519;28;20020;-79
2021/12/16 06:37:27;;;;;;;14.75;7.35;;;11.60;86.80;;;;;;5071428;28;20021;-79
2021/12/16 06:39:53;;;;;;;19.13;7.05;;;11.60;86.90;;;;;;5070605;28;20025;-78
2021/12/16 06:42:19;;;;;;;13.43;7.22;;;11.60;86.90;;;;;;5066901;28;20017;-78
2021/12/16 06:44:54;;;;;;;16.70;7.25;;;11.60;86.90;;;;;;5069977;28;20162;-79
2021/12/16 06:47:26;;;;;;;11.40;6.38;;;11.60;86.90;;;;;;5069745;28;20454;-79
2021/12/16 06:49:54;;;;;;;16.73;7.72;;;11.60;86.90;;;;;;5061992;28;20040;-78
2021/12/16 06:52:24;;;;;;;15.43;6.93;;;11.70;86.80;;;;;;5065265;28;20498;-78
2021/12/16 06:55:02;;;;;;;17.45;6.82;;;11.60;86.50;;;;;;5064693;28;20441;-80
2021/12/16 07:00:02;;;;;;;13.00;6.55;;;11.40;86.70;;;;;;5054494;28;20036;-78
2021/12/16 07:02:55;;;;;;;16.10;7.10;;;11.40;86.80;;;;;;5066610;28;20032;-79
2021/12/16 07:05:24;;;;;;;16.40;7.00;;;11.40;87.00;;;;;;5060530;28;20024;-80
2021/12/16 07:07:50;;;;;;;20.38;6.97;;;11.30;86.90;;;;;;5069105;28;20036;-79
2021/12/16 07:10:19;;;;;;;15.60;7.30;;;11.20;86.90;;;;;;5066572;28;20028;-80
2021/12/16 07:12:48;;;;;;;17.13;6.90;;;11.20;87.10;;;;;;5062366;28;20037;-80
2021/12/16 07:15:22;;;;;;;21.20;7.57;;;11.20;87.10;;;;;;5061171;28;20429;-79
2021/12/16 07:17:48;;;;;;;14.60;6.65;;;11.20;87.20;;;;;;5065537;28;20032;-79
2021/12/16 07:20:17;;;;;;;15.57;7.05;;;11.20;87.20;;;;;;5063659;28;20024;-79
2021/12/16 07:22:43;;;;;;;15.75;6.97;;;11.10;87.20;;;;;;5066098;28;20368;-79
2021/12/16 07:25:09;;;;;;;16.92;7.85;;;11.10;87.20;;;;;;5060164;28;20039;-80
2021/12/16 07:27:36;;;;;;;15.93;7.45;;;11.10;87.30;;;;;;5063280;28;20079;-79
2021/12/16 07:30:08;;;;;;;13.05;6.97;;;11.10;87.30;;;;;;5063071;28;20037;-79
2021/12/16 07:32:35;;;;;;;19.63;7.82;;;11.10;87.30;;;;;;5067399;28;20489;-79
2021/12/16 07:35:05;;;;;;;15.65;7.38;;;11.10;87.30;;;;;;5057573;28;20061;-80
2021/12/16 07:37:31;;;;;;;15.82;7.60;;;11.10;87.30;;;;;;5064231;28;20563;-78
2021/12/16 07:39:59;;;;;;;11.23;6.07;;;11.10;87.20;;;;;;5059751;28;20103;-79
2021/12/16 07:42:30;;;;;;;13.10;7.38;;;11.10;87.30;;;;;;5065161;28;20140;-79
2021/12/16 07:44:55;;;;;;;15.57;7.80;;;11.10;87.30;;;;;;5055120;28;20025;-78
2021/12/16 07:47:21;;;;;;;15.25;7.70;;;11.10;87.20;;;;;;5067183;28;20416;-79
2021/12/16 07:49:47;;;;;;;14.48;8.27;;;11.10;87.20;;;;;;5066327;28;20037;-80
2021/12/16 07:52:17;;;;;;;16.20;7.78;;;11.10;87.20;;;;;;5060157;28;20025;-78
2021/12/16 07:54:43;;;;;;;16.23;8.05;;;11.10;87.90;;;;;;5063428;28;20490;-81
2021/12/16 07:57:09;;;;;;;16.33;7.38;;;11.10;87.20;;;;;;5066249;28;20024;-81
2021/12/16 07:59:36;;;;;;;12.13;6.53;;;11.10;87.20;;;;;;5058553;28;20035;-80
2021/12/16 08:02:04;;;;;;;31.20;21.02;;;11.10;87.10;;;;;;5062743;28;20050;-78
2021/12/16 08:04:31;;;;;;;25.48;15.68;;;11.10;87.20;;;;;;5056060;28;20025;-78
2021/12/16 08:07:04;;;;;;;17.98;11.23;;;11.10;87.20;;;;;;5067299;28;20024;-79
2021/12/16 08:09:31;;;;;;;11.25;7.97;;;11.10;87.30;;;;;;5063367;28;20036;-79
2021/12/16 08:11:57;;;;;;;11.73;7.63;;;11.10;87.30;;;;;;5064992;28;20020;-80
2021/12/16 08:14:24;;;;;;;11.30;7.68;;;11.10;87.30;;;;;;5063310;28;20040;-78
2021/12/16 08:16:49;;;;;;;14.10;7.75;;;11.00;87.30;;;;;;5064804;28;20036;-79
2021/12/16 08:19:15;;;;;;;13.82;7.82;;;11.10;87.40;;;;;;5063763;28;20479;-79
2021/12/16 08:21:41;;;;;;;15.15;7.55;;;11.10;87.40;;;;;;5065157;28;20036;-79
2021/12/16 08:24:16;;;;;;;15.13;7.70;;;11.10;87.30;;;;;;5068243;28;20109;-81
2021/12/16 08:26:44;;;;;;;10.38;6.53;;;11.10;87.40;;;;;;5066133;28;20025;-80
2021/12/16 08:29:10;;;;;;;11.32;7.10;;;11.10;87.30;;;;;;5061797;28;20033;-78
2021/12/16 08:31:36;;;;;;;16.45;7.75;;;11.10;87.40;;;;;;5064588;28;20032;-79
2021/12/16 08:34:03;;;;;;;10.88;6.63;;;11.10;87.50;;;;;;5060899;28;20028;-84
2021/12/16 08:36:29;;;;;;;10.50;6.45;;;11.10;87.40;;;;;;5065298;28;20383;-84
2021/12/16 08:38:56;;;;;;;24.67;8.77;;;11.00;87.40;;;;;;5054790;28;20115;-85
2021/12/16 08:41:38;;;;;;;12.13;6.55;;;11.00;87.40;;;;;;5066077;28;20021;-80
2021/12/16 08:44:04;;;;;;;13.10;6.15;;;11.00;87.50;;;;;;5066001;28;20498;-82
2021/12/16 08:46:33;;;;;;;10.95;6.40;;;11.00;87.50;;;;;;5065129;28;20047;-80
2021/12/16 08:48:59;;;;;;;13.45;6.90;;;11.10;87.50;;;;;;5062418;28;20064;-79
2021/12/16 08:51:29;;;;;;;13.10;7.22;;;11.10;87.50;;;;;;5063305;28;20056;-79
2021/12/16 08:53:55;;;;;;;13.32;6.90;;;11.10;87.50;;;;;;5058779;28;20028;-78
2021/12/16 08:56:21;;;;;;;14.95;6.95;;;11.10;87.40;;;;;;5062892;28;20427;-80
2021/12/16 08:58:47;;;;;;;19.73;7.40;;;11.10;87.40;;;;;;5063800;28;20065;-80
2021/12/16 09:01:25;;;;;;;19.85;7.57;;;11.20;87.50;;;;;;5063109;28;20128;-78
2021/12/16 09:03:51;;;;;;;13.07;6.32;;;11.10;87.40;;;;;;5060782;28;20036;-78
2021/12/16 09:06:17;;;;;;;15.88;6.65;;;11.20;87.30;;;;;;5067527;28;20113;-78
2021/12/16 09:08:43;;;;;;;11.30;7.00;;;11.20;87.40;;;;;;5068987;28;20463;-81
2021/12/16 09:11:13;;;;;;;17.67;6.53;;;11.20;87.30;;;;;;5062137;28;20033;-81
2021/12/16 09:13:41;;;;;;;15.10;7.05;;;11.20;87.30;;;;;;5067557;28;20485;-78
2021/12/16 09:16:10;;;;;;;13.52;6.50;;;11.20;87.20;;;;;;5068742;28;20028;-78
2021/12/16 09:18:41;;;;;;;12.18;6.75;;;11.20;87.30;;;;;;5068868;28;20020;-83
2021/12/16 09:21:09;;;;;;;16.08;7.28;;;11.20;87.30;;;;;;5061827;28;20539;-78
2021/12/16 09:23:35;;;;;;;14.20;6.35;;;11.20;87.30;;;;;;5068708;28;20086;-78
2021/12/16 09:26:02;;;;;;;14.27;7.20;;;11.30;87.20;;;;;;5065088;28;20032;-78
2021/12/16 09:28:28;;;;;;;12.80;7.40;;;11.30;87.30;;;;;;5065278;28;20032;-77
2021/12/16 09:30:54;;;;;;;17.10;7.28;;;11.30;87.30;;;;;;5064562;28;20078;-80
2021/12/16 09:33:22;;;;;;;16.85;7.50;;;11.30;87.30;;;;;;5067956;28;20039;-81
2021/12/16 09:35:54;;;;;;;16.58;6.97;;;11.30;87.30;;;;;;5060033;28;20028;-81
2021/12/16 09:38:20;;;;;;;12.80;6.13;;;11.20;87.30;;;;;;5067376;28;20659;-84
2021/12/16 09:40:53;;;;;;;12.85;7.93;;;11.20;87.30;;;;;;5065916;28;20077;-82
2021/12/16 09:43:19;;;;;;;;;;;11.20;87.30;;;;;;5065730;28;20032;-84
2021/12/16 09:45:45;;;;;;;14.60;6.78;;;11.20;87.20;;;;;;5064253;28;19916;-83
2021/12/16 09:48:11;;;;;;;13.73;6.35;;;11.20;87.40;;;;;;5067125;28;20031;-82
2021/12/16 09:50:37;;;;;;;15.30;6.85;;;11.20;87.40;;;;;;5063353;28;20392;-81
2021/12/16 09:53:03;;;;;;;12.30;7.07;;;11.20;87.50;;;;;;5065089;28;20528;-82
2021/12/16 09:55:32;;;;;;;10.30;7.10;;;11.10;87.40;;;;;;5065367;28;20036;-80
2021/12/16 09:57:58;;;;;;;18.00;6.88;;;11.20;87.40;;;;;;5067608;28;20055;-78
2021/12/16 10:00:27;;;;;;;11.27;6.53;;;11.20;87.40;;;;;;5063942;28;20048;-80
2021/12/16 10:02:53;;;;;;;13.57;7.38;;;11.20;87.40;;;;;;5065406;28;20074;-81
2021/12/16 10:05:20;;;;;;;22.98;8.00;;;11.20;87.30;;;;;;5063475;28;20040;-81
2021/12/16 10:07:46;;;;;;;15.88;7.13;;;11.20;87.30;;;;;;5066438;28;20394;-82
2021/12/16 10:10:16;;;;;;;17.10;8.18;;;11.20;87.30;;;;;;5065388;28;20036;-83
2021/12/16 10:12:45;;;;;;;18.55;7.15;;;11.20;87.20;;;;;;5063607;28;20038;-81
2021/12/16 10:18:05;;;;;;;14.98;6.65;;;11.20;87.30;;;;;;5063939;28;20035;-80
2021/12/16 10:20:39;;;;;;;14.38;6.53;;;11.30;87.50;;;;;;5061012;28;20025;-77
2021/12/16 10:23:14;;;;;;;12.55;6.88;;;11.20;87.20;;;;;;5061295;28;20547;-80
2021/12/16 10:25:44;;;;;;;12.32;7.13;;;11.30;87.30;;;;;;5062273;28;20063;-80
2021/12/16 10:28:13;;;;;;;14.13;7.28;;;11.20;87.20;;;;;;5061656;28;20555;-79
2021/12/16 10:31:02;;;;;;;16.25;6.45;;;11.30;87.40;;;;;;5064680;28;20600;-79
2021/12/16 10:33:44;;;;;;;14.18;7.35;;;11.30;87.30;;;;;;5057735;28;20480;-82
2021/12/16 10:36:15;;;;;;;13.73;7.88;;;11.30;87.20;;;;;;5064305;28;20024;-81
2021/12/16 10:39:04;;;;;;;15.70;7.88;;;11.30;87.20;;;;;;5063037;28;20589;-77
2021/12/16 10:41:50;;;;;;;16.77;7.20;;;11.30;87.20;;;;;;5066182;28;20045;-78
2021/12/16 10:44:30;;;;;;;30.45;9.45;;;11.30;87.10;;;;;;5063595;28;20115;-78
2021/12/16 10:47:03;;;;;;;24.80;9.68;;;11.20;87.00;;;;;;5062624;28;20017;-78
2021/12/16 10:49:30;;;;;;;20.15;7.78;;;11.10;87.10;;;;;;5062826;28;20032;-77
2021/12/16 10:52:02;;;;;;;9.85;6.68;;;11.00;87.20;;;;;;5062274;28;20086;-78
2021/12/16 10:54:34;;;;;;;16.27;7.80;;;11.10;87.40;;;;;;5058464;28;20040;-78
2021/12/16 10:57:00;;;;;;;13.15;6.63;;;11.10;87.40;;;;;;5059589;28;20032;-78
2021/12/16 10:59:32;;;;;;;13.27;6.90;;;11.00;87.30;;;;;;5057501;28;20029;-79
2021/12/16 11:02:03;;;;;;;13.18;6.45;;;11.00;87.40;;;;;;5061449;28;20054;-79
2021/12/16 11:04:47;;;;;;;72.20;12.57;;;11.10;87.50;;;;;;5064223;28;20017;-78
2021/12/16 11:07:30;;;;;;;21.23;8.90;;;11.00;87.30;;;;;;5066616;28;20107;-79
2021/12/16 11:10:18;;;;;;;11.80;8.70;;;10.90;87.50;;;;;;5058563;28;20185;-80
2021/12/16 11:12:45;;;;;;;15.27;8.13;;;10.80;87.60;;;;;;5065131;28;20177;-77
2021/12/16 11:15:14;;;;;;;9.32;6.30;;;10.90;87.70;;;;;;5062199;28;20039;-80
2021/12/16 11:17:51;;;;;;;10.70;6.45;;;10.90;87.80;;;;;;5064157;28;20017;-80
2021/12/16 11:20:26;;;;;;;10.65;5.70;;;10.90;87.70;;;;;;5062739;28;20028;-79
2021/12/16 11:23:05;;;;;;;14.05;6.47;;;10.90;87.70;;;;;;5064184;28;20021;-80
2021/12/16 11:25:42;;;;;;;14.25;5.50;;;10.90;87.70;;;;;;5070817;28;20025;-81
2021/12/16 11:28:18;;;;;;;10.82;7.07;;;10.90;87.60;;;;;;5061155;28;20536;-81
2021/12/16 11:30:57;;;;;;;24.13;7.78;;;10.90;87.70;;;;;;5066607;28;20388;-79
2021/12/16 11:33:29;;;;;;;12.38;6.80;;;10.90;87.70;;;;;;5062907;28;20099;-78
2021/12/16 11:35:56;;;;;;;22.00;7.40;;;10.90;87.70;;;;;;5057051;28;20016;-78
2021/12/16 11:38:24;;;;;;;9.07;6.32;;;10.90;87.70;;;;;;5060054;28;20123;-79
2021/12/16 11:40:58;;;;;;;15.60;7.20;;;10.90;87.60;;;;;;5054678;28;20122;-80
2021/12/16 11:43:49;;;;;;;12.93;6.22;;;10.80;87.60;;;;;;5064384;28;20029;-79
2021/12/16 11:46:25;;;;;;;11.35;6.05;;;10.80;87.70;;;;;;5048535;28;20049;-81
2021/12/16 11:48:54;;;;;;;13.50;6.75;;;10.90;88.50;;;;;;5066872;28;20078;-80
2021/12/16 11:51:32;;;;;;;10.38;6.30;;;10.90;87.90;;;;;;5064451;28;20402;-80
2021/12/16 11:54:02;;;;;;;13.43;6.03;;;10.90;87.90;;;;;;5065107;28;20029;-80
2021/12/16 11:57:12;;;;;;;18.85;6.40;;;10.90;87.90;;;;;;5064076;28;20028;-80
2021/12/16 11:59:44;;;;;;;12.25;6.10;;;11.00;87.90;;;;;;5063037;28;20024;-81
2021/12/16 12:02:48;;;;;;;16.77;5.90;;;11.00;87.80;;;;;;5061669;28;20032;-81
2021/12/16 12:05:26;;;;;;;11.95;5.55;;;11.00;87.70;;;;;;5056199;28;20041;-83
2021/12/16 12:07:59;;;;;;;10.02;5.95;;;11.10;87.60;;;;;;5075023;28;20078;-80
2021/12/16 12:10:36;;;;;;;9.80;6.20;;;11.00;87.50;;;;;;5061573;28;20037;-78
2021/12/16 12:13:06;;;;;;;15.55;6.13;;;11.10;87.70;;;;;;5065557;28;20029;-79
2021/12/16 12:15:52;;;;;;;10.52;6.03;;;11.10;87.60;;;;;;5063801;28;20032;-79
2021/12/16 12:18:48;;;;;;;9.02;6.13;;;11.10;87.60;;;;;;5061102;28;20043;-80
2021/12/16 12:21:28;;;;;;;10.43;5.90;;;11.10;87.60;;;;;;5063783;28;20029;-78
2021/12/16 12:23:58;;;;;;;8.93;6.07;;;11.20;87.50;;;;;;5066237;28;20033;-79
2021/12/16 12:26:26;;;;;;;10.75;6.55;;;11.20;87.40;;;;;;5066725;28;20024;-79
2021/12/16 12:28:56;;;;;;;10.13;6.78;;;11.20;87.40;;;;;;5064810;28;20395;-79
2021/12/16 12:31:24;;;;;;;13.85;7.43;;;11.30;87.40;;;;;;5065619;28;20032;-78
2021/12/16 12:33:51;;;;;;;12.02;7.30;;;11.30;87.30;;;;;;5067477;28;20039;-81
2021/12/16 12:36:20;;;;;;;12.25;6.60;;;11.30;87.30;;;;;;5064827;28;20035;-80
2021/12/16 12:38:46;;;;;;;10.18;5.78;;;11.30;87.30;;;;;;5067393;28;20021;-80
2021/12/16 12:41:12;;;;;;;18.25;7.20;;;11.30;87.20;;;;;;5067953;28;20210;-79
2021/12/16 12:43:38;;;;;;;10.05;6.85;;;11.30;87.20;;;;;;5069529;28;20035;-80
2021/12/16 12:46:07;;;;;;;10.57;6.53;;;11.30;87.10;;;;;;5066830;28;20035;-78
2021/12/16 12:48:35;;;;;;;15.90;7.03;;;11.30;87.20;;;;;;5070651;28;20494;-81
2021/12/16 12:51:04;;;;;;;7.95;5.15;;;11.30;87.20;;;;;;5063657;28;20463;-78
2021/12/16 12:53:50;;;;;;;13.02;6.88;;;11.30;87.30;;;;;;5066951;28;20055;-83
2021/12/16 12:56:27;;;;;;;10.40;6.65;;;11.30;87.20;;;;;;5069111;28;20350;-79
2021/12/16 12:58:58;;;;;;;9.88;6.30;;;11.30;87.20;;;;;;5063068;28;20724;-79
2021/12/16 13:01:43;;;;;;;9.88;6.05;;;11.30;87.20;;;;;;5065593;28;20483;-80
2021/12/16 13:04:18;;;;;;;11.05;6.53;;;11.30;87.20;;;;;;5069143;28;20028;-81
2021/12/16 13:07:04;;;;;;;10.63;6.13;;;11.40;87.30;;;;;;5068987;28;20112;-78
2021/12/16 13:09:33;;;;;;;10.13;7.20;;;11.40;87.20;;;;;;5070326;28;20048;-79
2021/12/16 13:12:01;;;;;;;8.35;5.63;;;11.40;87.20;;;;;;5073053;28;20024;-80
2021/12/16 13:14:48;;;;;;;10.55;6.80;;;11.40;87.00;;;;;;5067931;28;20079;-80
2021/12/16 13:23:36;;;;;;;10.15;6.25;;;11.40;87.10;;;;;;5060777;28;20051;-80
2021/12/16 13:26:25;;;;;;;13.45;7.45;;;11.40;87.20;;;;;;5063358;28;20066;-83
2021/12/16 13:29:29;;;;;;;12.50;7.55;;;11.40;87.10;;;;;;5067836;28;20043;-82
2021/12/16 13:32:11;;;;;;;14.10;8.40;;;11.40;87.20;;;;;;5070488;28;20495;-81
2021/12/16 13:35:01;;;;;;;9.60;5.95;;;11.30;87.10;;;;;;5064777;28;20029;-79
2021/12/16 13:37:34;;;;;;;10.63;6.10;;;11.30;87.30;;;;;;5060735;28;20514;-78
2021/12/16 13:40:25;;;;;;;9.02;6.00;;;11.30;87.50;;;;;;5065898;28;20043;-79
2021/12/16 13:42:56;;;;;;;8.40;5.20;;;11.30;87.50;;;;;;5060480;28;20020;-82
2021/12/16 13:45:38;;;;;;;12.20;7.65;;;11.30;87.40;;;;;;5064430;28;20593;-80
2021/12/16 14:02:50;;;;;;;10.70;6.60;;;11.40;87.00;;;;;;5068762;28;20032;-79
2021/12/16 14:05:45;;;;;;;11.60;6.20;;;11.30;86.90;;;;;;5064600;28;20111;-79
2021/12/16 14:08:26;;;;;;;11.85;6.55;;;11.40;87.10;;;;;;5067274;28;20048;-78
2021/12/16 14:10:58;;;;;;;10.82;6.75;;;11.30;87.10;;;;;;5065092;28;20037;-80
2021/12/16 14:16:35;;;;;;;13.63;6.88;;;11.30;87.10;;;;;;5066901;28;20078;-77
2021/12/16 14:24:45;;;;;;;11.65;7.13;;;11.30;87.20;;;;;;5065300;28;20114;-81
2021/12/16 14:41:36;;;;;;;11.70;6.88;;;11.30;87.30;;;;;;5066234;28;20593;-80
2021/12/16 14:44:18;;;;;;;10.32;6.78;;;11.20;87.20;;;;;;5067278;28;20043;-80
2021/12/16 14:47:06;;;;;;;10.07;6.35;;;11.20;87.20;;;;;;5067525;28;20016;-79
2021/12/16 14:49:36;;;;;;;10.13;6.22;;;11.20;87.20;;;;;;5068551;28;20032;-79
2021/12/16 14:52:03;;;;;;;11.18;6.57;;;11.20;87.30;;;;;;5067586;28;20020;-80
2021/12/16 14:54:30;;;;;;;11.07;6.75;;;11.20;87.20;;;;;;5057527;28;20032;-78
2021/12/16 14:57:02;;;;;;;11.48;7.00;;;11.20;87.20;;;;;;5063820;28;20395;-83
2021/12/16 14:59:31;;;;;;;10.68;6.47;;;11.20;87.20;;;;;;5064907;28;20107;-81
2021/12/16 15:02:00;;;;;;;11.23;6.85;;;11.20;87.30;;;;;;5065831;28;20992;-81
2021/12/16 15:04:29;;;;;;;10.65;6.22;;;11.10;87.20;;;;;;5065969;28;20055;-82
2021/12/16 15:07:02;;;;;;;11.45;6.53;;;11.10;87.30;;;;;;5065931;28;20044;-85
2021/12/16 15:09:32;;;;;;;11.95;6.57;;;11.10;87.20;;;;;;5061806;28;20138;-82
2021/12/16 15:12:39;;;;;;;12.13;7.40;;;11.10;87.10;;;;;;5061922;28;21128;-79
2021/12/16 15:15:21;;;;;;;12.02;6.40;;;11.10;87.10;;;;;;5064120;28;20040;-77
2021/12/16 15:35:45;;;;;;;10.80;6.72;;;11.10;87.00;;;;;;5066591;28;20659;-79
2021/12/16 15:42:54;;;;;;;13.73;6.68;;;11.00;87.00;;;;;;5067169;28;20037;-78
2021/12/16 15:45:30;;;;;;;10.23;6.10;;;11.00;87.00;;;;;;5062811;28;20752;-81
2021/12/16 15:48:04;;;;;;;14.65;6.38;;;11.00;87.00;;;;;;5065039;28;20089;-80
2021/12/16 15:50:46;;;;;;;10.98;6.50;;;11.00;87.10;;;;;;5067863;28;20451;-78
2021/12/16 15:53:16;;;;;;;11.75;6.38;;;10.90;87.20;;;;;;5066321;28;20509;-82
2021/12/16 15:55:55;;;;;;;12.98;6.60;;;10.90;87.20;;;;;;5065691;28;20052;-79
2021/12/16 15:58:25;;;;;;;18.67;5.63;;;10.90;87.20;;;;;;5065209;28;20116;-81
2021/12/16 16:00:56;;;;;;;13.35;6.47;;;10.90;87.20;;;;;;5065620;28;20024;-82
2021/12/16 16:03:22;;;;;;;12.07;5.90;;;10.90;87.30;;;;;;5064502;28;20020;-80
2021/12/16 16:05:52;;;;;;;12.73;6.90;;;10.90;87.30;;;;;;5063771;28;20567;-81
2021/12/16 16:08:19;;;;;;;18.17;6.32;;;10.90;87.30;;;;;;5066945;28;20032;-80
2021/12/16 16:10:50;;;;;;;14.43;6.32;;;10.90;87.20;;;;;;5063465;28;20073;-80
2021/12/16 16:13:20;;;;;;;14.90;7.22;;;10.90;87.20;;;;;;5066430;28;20570;-81
2021/12/16 16:15:48;;;;;;;12.73;6.75;;;10.90;87.20;;;;;;5066048;28;20020;-79
2021/12/16 16:21:16;;;;;;;20.98;6.93;;;11.00;87.10;;;;;;5065502;28;20028;-76